Time;durP1;ratioP1;P1;durP2;ratioP2;P2;SDS_P1;SDS_P2;PMS_P1;PMS_P2;Temp;Humidity;BMP_temperature;BMP_pressure;BME280_temperature;BME280_humidity;BME280_pressure;Samples;Min_cycle;Max_cycle;Signal;HPM_P1;HPM_P2
2022/06/24 00:00:42;;;;;;;4;2.1;;;;;;;19;74.32324;94852.76;;;;
2022/06/24 00:01:43;;;;;;;4;2.1;;;;;;;19;74.32324;94852.76;;;;
2022/06/24 00:02:52;;;;;;;4;2.1;;;;;;;19;74.32324;94852.76;;;;
2022/06/24 00:03:53;;;;;;;4;2.1;;;;;;;19;74.32324;94852.76;;;;
2022/06/24 00:04:53;;;;;;;4;2.1;;;;;;;19;74.32324;94852.76;;;;
2022/06/24 00:05:56;;;;;;;4;2.1;;;;;;;19;74.32324;94852.76;;;;
2022/06/24 00:06:56;;;;;;;2.4;1.7;;;;;;;18.84;75.0293;94857.11;;;;
2022/06/24 00:07:57;;;;;;;2.4;1.7;;;;;;;18.84;75.0293;94857.11;;;;
2022/06/24 00:08:58;;;;;;;2.4;1.7;;;;;;;18.84;75.0293;94857.11;;;;
2022/06/24 00:09:59;;;;;;;2.4;1.7;;;;;;;18.84;75.0293;94857.11;;;;
2022/06/24 00:11:00;;;;;;;2.4;1.7;;;;;;;18.84;75.0293;94857.11;;;;
2022/06/24 00:12:11;;;;;;;2.4;1.7;;;;;;;18.84;75.0293;94857.11;;;;
2022/06/24 00:13:14;;;;;;;2.4;1.7;;;;;;;18.84;75.0293;94857.11;;;;
2022/06/24 00:14:15;;;;;;;2.4;1.7;;;;;;;18.84;75.0293;94857.11;;;;
2022/06/24 00:15:15;;;;;;;2.4;1.7;;;;;;;18.84;75.0293;94857.11;;;;
2022/06/24 00:16:23;;;;;;;2.4;1.7;;;;;;;18.84;75.0293;94857.11;;;;
2022/06/24 00:17:24;;;;;;;2.950001;1.6;;;;;;;18.77;75.83984;94876.14;;;;
2022/06/24 00:18:28;;;;;;;2.950001;1.6;;;;;;;18.77;75.83984;94876.14;;;;
2022/06/24 00:19:29;;;;;;;2.950001;1.6;;;;;;;18.77;75.83984;94876.14;;;;
2022/06/24 00:20:31;;;;;;;2.950001;1.6;;;;;;;18.77;75.83984;94876.14;;;;
2022/06/24 00:21:41;;;;;;;2.950001;1.6;;;;;;;18.77;75.83984;94876.14;;;;
2022/06/24 00:22:42;;;;;;;2.950001;1.6;;;;;;;18.77;75.83984;94876.14;;;;
2022/06/24 00:23:45;;;;;;;2.950001;1.6;;;;;;;18.77;75.83984;94876.14;;;;
2022/06/24 00:24:46;;;;;;;2.950001;1.6;;;;;;;18.77;75.83984;94876.14;;;;
2022/06/24 00:25:46;;;;;;;2.950001;1.6;;;;;;;18.77;75.83984;94876.14;;;;
2022/06/24 00:26:48;;;;;;;2.950001;1.6;;;;;;;18.77;75.83984;94876.14;;;;
2022/06/24 00:27:48;;;;;;;2.950001;1.6;;;;;;;18.77;75.83984;94876.14;;;;
2022/06/24 00:29:06;;;;;;;2.25;1.55;;;;;;;18.67;76.42578;94876.2;;;;
2022/06/24 00:30:07;;;;;;;2.25;1.55;;;;;;;18.67;76.42578;94876.2;;;;
2022/06/24 00:31:10;;;;;;;2.25;1.55;;;;;;;18.67;76.42578;94876.2;;;;
2022/06/24 00:32:11;;;;;;;2.25;1.55;;;;;;;18.67;76.42578;94876.2;;;;
2022/06/24 00:33:11;;;;;;;2.25;1.55;;;;;;;18.67;76.42578;94876.2;;;;
2022/06/24 00:34:13;;;;;;;2.25;1.55;;;;;;;18.67;76.42578;94876.2;;;;
2022/06/24 00:35:23;;;;;;;2.25;1.55;;;;;;;18.67;76.42578;94876.2;;;;
2022/06/24 00:36:23;;;;;;;2.25;1.55;;;;;;;18.67;76.42578;94876.2;;;;
2022/06/24 00:37:24;;;;;;;2.25;1.55;;;;;;;18.67;76.42578;94876.2;;;;
2022/06/24 00:38:27;;;;;;;2.25;1.55;;;;;;;18.67;76.42578;94876.2;;;;
2022/06/24 00:39:30;;;;;;;2.3;1.5;;;;;;;18.63;77.00977;94887.17;;;;
2022/06/24 00:40:32;;;;;;;2.3;1.5;;;;;;;18.63;77.00977;94887.17;;;;
2022/06/24 00:41:35;;;;;;;2.3;1.5;;;;;;;18.63;77.00977;94887.17;;;;
2022/06/24 00:42:35;;;;;;;2.3;1.5;;;;;;;18.63;77.00977;94887.17;;;;
2022/06/24 00:43:37;;;;;;;2.3;1.5;;;;;;;18.63;77.00977;94887.17;;;;
2022/06/24 00:44:39;;;;;;;2.3;1.5;;;;;;;18.63;77.00977;94887.17;;;;
2022/06/24 00:45:45;;;;;;;2.3;1.5;;;;;;;18.63;77.00977;94887.17;;;;
2022/06/24 00:46:48;;;;;;;2.3;1.5;;;;;;;18.63;77.00977;94887.17;;;;
2022/06/24 00:47:50;;;;;;;2.3;1.5;;;;;;;18.63;77.00977;94887.17;;;;
2022/06/24 00:48:52;;;;;;;2.3;1.5;;;;;;;18.63;77.00977;94887.17;;;;
2022/06/24 00:49:54;;;;;;;3.75;1.6;;;;;;;18.55;77.4668;94887.31;;;;
2022/06/24 00:50:58;;;;;;;3.75;1.6;;;;;;;18.55;77.4668;94887.31;;;;
2022/06/24 00:51:58;;;;;;;3.75;1.6;;;;;;;18.55;77.4668;94887.31;;;;
2022/06/24 00:53:06;;;;;;;3.75;1.6;;;;;;;18.55;77.4668;94887.31;;;;
2022/06/24 00:54:07;;;;;;;3.75;1.6;;;;;;;18.55;77.4668;94887.31;;;;
2022/06/24 00:55:09;;;;;;;3.75;1.6;;;;;;;18.55;77.4668;94887.31;;;;
2022/06/24 00:56:10;;;;;;;3.75;1.6;;;;;;;18.55;77.4668;94887.31;;;;
2022/06/24 00:57:13;;;;;;;3.75;1.6;;;;;;;18.55;77.4668;94887.31;;;;
2022/06/24 00:58:14;;;;;;;3.75;1.6;;;;;;;18.55;77.4668;94887.31;;;;
2022/06/24 00:59:16;;;;;;;3.75;1.6;;;;;;;18.55;77.4668;94887.31;;;;
2022/06/24 01:00:17;;;;;;;3.3;1.7;;;;;;;18.44;77.97363;94871.42;;;;
2022/06/24 01:01:18;;;;;;;3.3;1.7;;;;;;;18.44;77.97363;94871.42;;;;
2022/06/24 01:02:27;;;;;;;3.3;1.7;;;;;;;18.44;77.97363;94871.42;;;;
2022/06/24 01:03:28;;;;;;;3.3;1.7;;;;;;;18.44;77.97363;94871.42;;;;
2022/06/24 01:04:36;;;;;;;3.3;1.7;;;;;;;18.44;77.97363;94871.42;;;;
2022/06/24 01:05:36;;;;;;;3.3;1.7;;;;;;;18.44;77.97363;94871.42;;;;
2022/06/24 01:06:37;;;;;;;3.3;1.7;;;;;;;18.44;77.97363;94871.42;;;;
2022/06/24 01:07:40;;;;;;;3.3;1.7;;;;;;;18.44;77.97363;94871.42;;;;
2022/06/24 01:08:41;;;;;;;3.3;1.7;;;;;;;18.44;77.97363;94871.42;;;;
2022/06/24 01:09:41;;;;;;;3.3;1.7;;;;;;;18.44;77.97363;94871.42;;;;
2022/06/24 01:10:42;;;;;;;2.299999;1.35;;;;;;;18.22;78.30664;94874.1;;;;
2022/06/24 01:11:48;;;;;;;2.299999;1.35;;;;;;;18.22;78.30664;94874.1;;;;
2022/06/24 01:12:48;;;;;;;2.299999;1.35;;;;;;;18.22;78.30664;94874.1;;;;
2022/06/24 01:13:49;;;;;;;2.299999;1.35;;;;;;;18.22;78.30664;94874.1;;;;
2022/06/24 01:14:50;;;;;;;2.299999;1.35;;;;;;;18.22;78.30664;94874.1;;;;
2022/06/24 01:15:51;;;;;;;2.299999;1.35;;;;;;;18.22;78.30664;94874.1;;;;
2022/06/24 01:16:51;;;;;;;2.299999;1.35;;;;;;;18.22;78.30664;94874.1;;;;
2022/06/24 01:17:52;;;;;;;2.299999;1.35;;;;;;;18.22;78.30664;94874.1;;;;
2022/06/24 01:18:52;;;;;;;2.299999;1.35;;;;;;;18.22;78.30664;94874.1;;;;
2022/06/24 01:19:54;;;;;;;2.299999;1.35;;;;;;;18.22;78.30664;94874.1;;;;
2022/06/24 01:20:54;;;;;;;2.299999;1.35;;;;;;;18.22;78.30664;94874.1;;;;
2022/06/24 01:21:55;;;;;;;2.45;1.5;;;;;;;18.09;78.80762;94880.77;;;;
2022/06/24 01:22:55;;;;;;;2.45;1.5;;;;;;;18.09;78.80762;94880.77;;;;
2022/06/24 01:23:56;;;;;;;2.45;1.5;;;;;;;18.09;78.80762;94880.77;;;;
2022/06/24 01:25:03;;;;;;;2.45;1.5;;;;;;;18.09;78.80762;94880.77;;;;
2022/06/24 01:26:04;;;;;;;2.45;1.5;;;;;;;18.09;78.80762;94880.77;;;;
2022/06/24 01:27:06;;;;;;;2.45;1.5;;;;;;;18.09;78.80762;94880.77;;;;
2022/06/24 01:28:07;;;;;;;2.45;1.5;;;;;;;18.09;78.80762;94880.77;;;;
2022/06/24 01:29:07;;;;;;;2.45;1.5;;;;;;;18.09;78.80762;94880.77;;;;
2022/06/24 01:30:08;;;;;;;2.45;1.5;;;;;;;18.09;78.80762;94880.77;;;;
2022/06/24 01:31:10;;;;;;;2.45;1.5;;;;;;;18.09;78.80762;94880.77;;;;
2022/06/24 01:32:10;;;;;;;1.95;1.5;;;;;;;18.04;79.2041;94891.49;;;;
2022/06/24 01:33:11;;;;;;;1.95;1.5;;;;;;;18.04;79.2041;94891.49;;;;
2022/06/24 01:34:11;;;;;;;1.95;1.5;;;;;;;18.04;79.2041;94891.49;;;;
2022/06/24 01:35:12;;;;;;;1.95;1.5;;;;;;;18.04;79.2041;94891.49;;;;
2022/06/24 01:36:13;;;;;;;1.95;1.5;;;;;;;18.04;79.2041;94891.49;;;;
2022/06/24 01:37:14;;;;;;;1.95;1.5;;;;;;;18.04;79.2041;94891.49;;;;
2022/06/24 01:38:14;;;;;;;1.95;1.5;;;;;;;18.04;79.2041;94891.49;;;;
2022/06/24 01:39:15;;;;;;;1.95;1.5;;;;;;;18.04;79.2041;94891.49;;;;
2022/06/24 01:40:15;;;;;;;1.95;1.5;;;;;;;18.04;79.2041;94891.49;;;;
2022/06/24 01:41:16;;;;;;;1.95;1.5;;;;;;;18.04;79.2041;94891.49;;;;
2022/06/24 01:42:17;;;;;;;1.95;1.5;;;;;;;18.04;79.2041;94891.49;;;;
2022/06/24 01:43:18;;;;;;;1.9;1.7;;;;;;;18.06;79.63379;94884.53;;;;
2022/06/24 01:44:18;;;;;;;1.9;1.7;;;;;;;18.06;79.63379;94884.53;;;;
2022/06/24 01:45:19;;;;;;;1.9;1.7;;;;;;;18.06;79.63379;94884.53;;;;
2022/06/24 01:46:19;;;;;;;1.9;1.7;;;;;;;18.06;79.63379;94884.53;;;;
2022/06/24 01:47:20;;;;;;;1.9;1.7;;;;;;;18.06;79.63379;94884.53;;;;
2022/06/24 01:48:20;;;;;;;1.9;1.7;;;;;;;18.06;79.63379;94884.53;;;;
2022/06/24 01:49:21;;;;;;;1.9;1.7;;;;;;;18.06;79.63379;94884.53;;;;
2022/06/24 01:50:21;;;;;;;1.9;1.7;;;;;;;18.06;79.63379;94884.53;;;;
2022/06/24 01:51:22;;;;;;;1.9;1.7;;;;;;;18.06;79.63379;94884.53;;;;
2022/06/24 01:52:24;;;;;;;1.9;1.7;;;;;;;18.06;79.63379;94884.53;;;;
2022/06/24 01:53:25;;;;;;;2.1;1.6;;;;;;;17.91;79.81445;94889.34;;;;
2022/06/24 01:54:26;;;;;;;2.1;1.6;;;;;;;17.91;79.81445;94889.34;;;;
2022/06/24 01:55:26;;;;;;;2.1;1.6;;;;;;;17.91;79.81445;94889.34;;;;
2022/06/24 01:56:27;;;;;;;2.1;1.6;;;;;;;17.91;79.81445;94889.34;;;;
2022/06/24 01:57:27;;;;;;;2.1;1.6;;;;;;;17.91;79.81445;94889.34;;;;
2022/06/24 01:58:28;;;;;;;2.1;1.6;;;;;;;17.91;79.81445;94889.34;;;;
2022/06/24 01:59:29;;;;;;;2.1;1.6;;;;;;;17.91;79.81445;94889.34;;;;
2022/06/24 02:00:29;;;;;;;2.1;1.6;;;;;;;17.91;79.81445;94889.34;;;;
2022/06/24 02:01:30;;;;;;;2.1;1.6;;;;;;;17.91;79.81445;94889.34;;;;
2022/06/24 02:02:30;;;;;;;2.1;1.6;;;;;;;17.91;79.81445;94889.34;;;;
2022/06/24 02:03:31;;;;;;;2.1;1.6;;;;;;;17.91;79.81445;94889.34;;;;
2022/06/24 02:04:33;;;;;;;2.65;1.7;;;;;;;17.66;80.15234;94883.43;;;;
2022/06/24 02:05:33;;;;;;;2.65;1.7;;;;;;;17.66;80.15234;94883.43;;;;
2022/06/24 02:06:34;;;;;;;2.65;1.7;;;;;;;17.66;80.15234;94883.43;;;;
2022/06/24 02:07:35;;;;;;;2.65;1.7;;;;;;;17.66;80.15234;94883.43;;;;
2022/06/24 02:08:35;;;;;;;2.65;1.7;;;;;;;17.66;80.15234;94883.43;;;;
2022/06/24 02:13:26;;;;;;;2.65;1.7;;;;;;;17.66;80.15234;94883.43;;;;
2022/06/24 02:14:27;;;;;;;2.65;1.7;;;;;;;17.66;80.15234;94883.43;;;;
2022/06/24 02:15:27;;;;;;;3.4;1.6;;;;;;;17.45;80.60449;94879.11;;;;
2022/06/24 02:16:28;;;;;;;3.4;1.6;;;;;;;17.45;80.60449;94879.11;;;;
2022/06/24 02:17:30;;;;;;;3.4;1.6;;;;;;;17.45;80.60449;94879.11;;;;
2022/06/24 02:18:30;;;;;;;3.4;1.6;;;;;;;17.45;80.60449;94879.11;;;;
2022/06/24 02:19:32;;;;;;;3.4;1.6;;;;;;;17.45;80.60449;94879.11;;;;
2022/06/24 02:20:33;;;;;;;3.4;1.6;;;;;;;17.45;80.60449;94879.11;;;;
2022/06/24 02:21:33;;;;;;;3.4;1.6;;;;;;;17.45;80.60449;94879.11;;;;
2022/06/24 02:22:34;;;;;;;3.4;1.6;;;;;;;17.45;80.60449;94879.11;;;;
2022/06/24 02:23:35;;;;;;;3.4;1.6;;;;;;;17.45;80.60449;94879.11;;;;
2022/06/24 02:24:35;;;;;;;3.4;1.6;;;;;;;17.45;80.60449;94879.11;;;;
2022/06/24 02:25:36;;;;;;;3.3;1.65;;;;;;;17.48;81.05762;94877.36;;;;
2022/06/24 02:26:36;;;;;;;3.3;1.65;;;;;;;17.48;81.05762;94877.36;;;;
2022/06/24 02:27:37;;;;;;;3.3;1.65;;;;;;;17.48;81.05762;94877.36;;;;
2022/06/24 02:28:37;;;;;;;3.3;1.65;;;;;;;17.48;81.05762;94877.36;;;;
2022/06/24 02:29:38;;;;;;;3.3;1.65;;;;;;;17.48;81.05762;94877.36;;;;
2022/06/24 02:30:38;;;;;;;3.3;1.65;;;;;;;17.48;81.05762;94877.36;;;;
2022/06/24 02:31:40;;;;;;;3.3;1.65;;;;;;;17.48;81.05762;94877.36;;;;
2022/06/24 02:32:42;;;;;;;3.3;1.65;;;;;;;17.48;81.05762;94877.36;;;;
2022/06/24 02:33:42;;;;;;;3.3;1.65;;;;;;;17.48;81.05762;94877.36;;;;
2022/06/24 02:34:43;;;;;;;3.3;1.65;;;;;;;17.48;81.05762;94877.36;;;;
2022/06/24 02:35:44;;;;;;;3.3;1.65;;;;;;;17.48;81.05762;94877.36;;;;
2022/06/24 02:36:44;;;;;;;2.65;1.95;;;;;;;17.38;81.27832;94873.33;;;;
2022/06/24 02:37:45;;;;;;;2.65;1.95;;;;;;;17.38;81.27832;94873.33;;;;
2022/06/24 02:38:45;;;;;;;2.65;1.95;;;;;;;17.38;81.27832;94873.33;;;;
2022/06/24 02:39:46;;;;;;;2.65;1.95;;;;;;;17.38;81.27832;94873.33;;;;
2022/06/24 02:40:47;;;;;;;2.65;1.95;;;;;;;17.38;81.27832;94873.33;;;;
2022/06/24 02:41:48;;;;;;;2.65;1.95;;;;;;;17.38;81.27832;94873.33;;;;
2022/06/24 02:42:48;;;;;;;2.65;1.95;;;;;;;17.38;81.27832;94873.33;;;;
2022/06/24 02:43:54;;;;;;;2.65;1.95;;;;;;;17.38;81.27832;94873.33;;;;
2022/06/24 02:44:54;;;;;;;2.65;1.95;;;;;;;17.38;81.27832;94873.33;;;;
2022/06/24 02:45:55;;;;;;;2.65;1.95;;;;;;;17.38;81.27832;94873.33;;;;
2022/06/24 02:46:58;;;;;;;2.15;1.8;;;;;;;17.25;81.61621;94862.58;;;;
2022/06/24 02:47:58;;;;;;;2.15;1.8;;;;;;;17.25;81.61621;94862.58;;;;
2022/06/24 02:48:59;;;;;;;2.15;1.8;;;;;;;17.25;81.61621;94862.58;;;;
2022/06/24 02:49:59;;;;;;;2.15;1.8;;;;;;;17.25;81.61621;94862.58;;;;
2022/06/24 02:51:00;;;;;;;2.15;1.8;;;;;;;17.25;81.61621;94862.58;;;;
2022/06/24 02:52:02;;;;;;;2.15;1.8;;;;;;;17.25;81.61621;94862.58;;;;
2022/06/24 02:53:03;;;;;;;2.15;1.8;;;;;;;17.25;81.61621;94862.58;;;;
2022/06/24 02:54:04;;;;;;;2.15;1.8;;;;;;;17.25;81.61621;94862.58;;;;
2022/06/24 02:55:04;;;;;;;2.15;1.8;;;;;;;17.25;81.61621;94862.58;;;;
2022/06/24 02:56:05;;;;;;;2.15;1.8;;;;;;;17.25;81.61621;94862.58;;;;
2022/06/24 02:57:08;;;;;;;2.15;1.8;;;;;;;17.25;81.61621;94862.58;;;;
2022/06/24 02:58:08;;;;;;;1.9;1.7;;;;;;;17.12;81.96191;94861.22;;;;
2022/06/24 02:59:09;;;;;;;1.9;1.7;;;;;;;17.12;81.96191;94861.22;;;;
2022/06/24 03:00:09;;;;;;;1.9;1.7;;;;;;;17.12;81.96191;94861.22;;;;
2022/06/24 03:01:11;;;;;;;1.9;1.7;;;;;;;17.12;81.96191;94861.22;;;;
2022/06/24 03:02:11;;;;;;;1.9;1.7;;;;;;;17.12;81.96191;94861.22;;;;
2022/06/24 03:03:12;;;;;;;1.9;1.7;;;;;;;17.12;81.96191;94861.22;;;;
2022/06/24 03:04:14;;;;;;;1.9;1.7;;;;;;;17.12;81.96191;94861.22;;;;
2022/06/24 03:05:15;;;;;;;1.9;1.7;;;;;;;17.12;81.96191;94861.22;;;;
2022/06/24 03:06:16;;;;;;;1.9;1.7;;;;;;;17.12;81.96191;94861.22;;;;
2022/06/24 03:07:16;;;;;;;1.9;1.7;;;;;;;17.12;81.96191;94861.22;;;;
2022/06/24 03:08:16;;;;;;;3;1.8;;;;;;;17.17;82.3418;94861.35;;;;
2022/06/24 03:09:18;;;;;;;3;1.8;;;;;;;17.17;82.3418;94861.35;;;;
2022/06/24 03:10:19;;;;;;;3;1.8;;;;;;;17.17;82.3418;94861.35;;;;
2022/06/24 03:11:20;;;;;;;3;1.8;;;;;;;17.17;82.3418;94861.35;;;;
2022/06/24 03:12:20;;;;;;;3;1.8;;;;;;;17.17;82.3418;94861.35;;;;
2022/06/24 03:13:21;;;;;;;3;1.8;;;;;;;17.17;82.3418;94861.35;;;;
2022/06/24 03:14:22;;;;;;;3;1.8;;;;;;;17.17;82.3418;94861.35;;;;
2022/06/24 03:15:22;;;;;;;3;1.8;;;;;;;17.17;82.3418;94861.35;;;;
2022/06/24 03:16:23;;;;;;;3;1.8;;;;;;;17.17;82.3418;94861.35;;;;
2022/06/24 03:17:23;;;;;;;3;1.8;;;;;;;17.17;82.3418;94861.35;;;;
2022/06/24 03:18:24;;;;;;;3;1.8;;;;;;;17.17;82.3418;94861.35;;;;
2022/06/24 03:19:24;;;;;;;4.45;1.9;;;;;;;17.19;82.54297;94857.78;;;;
2022/06/24 03:20:25;;;;;;;4.45;1.9;;;;;;;17.19;82.54297;94857.78;;;;
2022/06/24 03:21:26;;;;;;;4.45;1.9;;;;;;;17.19;82.54297;94857.78;;;;
2022/06/24 03:22:26;;;;;;;4.45;1.9;;;;;;;17.19;82.54297;94857.78;;;;
2022/06/24 03:23:27;;;;;;;4.45;1.9;;;;;;;17.19;82.54297;94857.78;;;;
2022/06/24 03:24:27;;;;;;;4.45;1.9;;;;;;;17.19;82.54297;94857.78;;;;
2022/06/24 03:25:28;;;;;;;4.45;1.9;;;;;;;17.19;82.54297;94857.78;;;;
2022/06/24 03:26:29;;;;;;;4.45;1.9;;;;;;;17.19;82.54297;94857.78;;;;
2022/06/24 03:27:29;;;;;;;4.45;1.9;;;;;;;17.19;82.54297;94857.78;;;;
2022/06/24 03:28:30;;;;;;;4.45;1.9;;;;;;;17.19;82.54297;94857.78;;;;
2022/06/24 03:29:30;;;;;;;6.35;2.1;;;;;;;17.31;82.85938;94871.69;;;;
2022/06/24 03:30:32;;;;;;;6.35;2.1;;;;;;;17.31;82.85938;94871.69;;;;
2022/06/24 03:31:32;;;;;;;6.35;2.1;;;;;;;17.31;82.85938;94871.69;;;;
2022/06/24 03:32:33;;;;;;;6.35;2.1;;;;;;;17.31;82.85938;94871.69;;;;
2022/06/24 03:33:33;;;;;;;6.35;2.1;;;;;;;17.31;82.85938;94871.69;;;;
2022/06/24 03:34:34;;;;;;;6.35;2.1;;;;;;;17.31;82.85938;94871.69;;;;
2022/06/24 03:35:35;;;;;;;6.35;2.1;;;;;;;17.31;82.85938;94871.69;;;;
2022/06/24 03:36:35;;;;;;;6.35;2.1;;;;;;;17.31;82.85938;94871.69;;;;
2022/06/24 03:37:36;;;;;;;6.35;2.1;;;;;;;17.31;82.85938;94871.69;;;;
2022/06/24 03:38:37;;;;;;;6.35;2.1;;;;;;;17.31;82.85938;94871.69;;;;
2022/06/24 03:39:37;;;;;;;6.35;2.1;;;;;;;17.31;82.85938;94871.69;;;;
2022/06/24 03:40:38;;;;;;;3;1.65;;;;;;;17.41;82.96484;94853.94;;;;
2022/06/24 03:41:38;;;;;;;3;1.65;;;;;;;17.41;82.96484;94853.94;;;;
2022/06/24 03:42:39;;;;;;;3;1.65;;;;;;;17.41;82.96484;94853.94;;;;
2022/06/24 03:43:39;;;;;;;3;1.65;;;;;;;17.41;82.96484;94853.94;;;;
2022/06/24 03:44:40;;;;;;;3;1.65;;;;;;;17.41;82.96484;94853.94;;;;
2022/06/24 03:45:41;;;;;;;3;1.65;;;;;;;17.41;82.96484;94853.94;;;;
2022/06/24 03:46:41;;;;;;;3;1.65;;;;;;;17.41;82.96484;94853.94;;;;
2022/06/24 03:47:42;;;;;;;3;1.65;;;;;;;17.41;82.96484;94853.94;;;;
2022/06/24 03:48:42;;;;;;;3;1.65;;;;;;;17.41;82.96484;94853.94;;;;
2022/06/24 03:49:43;;;;;;;3;1.65;;;;;;;17.41;82.96484;94853.94;;;;
2022/06/24 03:50:43;;;;;;;3;1.65;;;;;;;17.41;82.96484;94853.94;;;;
2022/06/24 03:51:44;;;;;;;3.7;1.75;;;;;;;17.59;83.17383;94853.47;;;;
2022/06/24 03:52:44;;;;;;;3.7;1.75;;;;;;;17.59;83.17383;94853.47;;;;
2022/06/24 03:53:45;;;;;;;3.7;1.75;;;;;;;17.59;83.17383;94853.47;;;;
2022/06/24 03:54:45;;;;;;;3.7;1.75;;;;;;;17.59;83.17383;94853.47;;;;
2022/06/24 03:55:46;;;;;;;3.7;1.75;;;;;;;17.59;83.17383;94853.47;;;;
2022/06/24 03:56:47;;;;;;;3.7;1.75;;;;;;;17.59;83.17383;94853.47;;;;
2022/06/24 03:57:48;;;;;;;3.7;1.75;;;;;;;17.59;83.17383;94853.47;;;;
2022/06/24 03:58:49;;;;;;;3.7;1.75;;;;;;;17.59;83.17383;94853.47;;;;
2022/06/24 03:59:49;;;;;;;3.7;1.75;;;;;;;17.59;83.17383;94853.47;;;;
2022/06/24 04:00:49;;;;;;;3.7;1.75;;;;;;;17.59;83.17383;94853.47;;;;
2022/06/24 04:01:50;;;;;;;3.55;2.05;;;;;;;17.7;83.16992;94841.86;;;;
2022/06/24 04:02:51;;;;;;;3.55;2.05;;;;;;;17.7;83.16992;94841.86;;;;
2022/06/24 04:03:51;;;;;;;3.55;2.05;;;;;;;17.7;83.16992;94841.86;;;;
2022/06/24 04:04:51;;;;;;;3.55;2.05;;;;;;;17.7;83.16992;94841.86;;;;
2022/06/24 04:05:52;;;;;;;3.55;2.05;;;;;;;17.7;83.16992;94841.86;;;;
2022/06/24 04:06:52;;;;;;;3.55;2.05;;;;;;;17.7;83.16992;94841.86;;;;
2022/06/24 04:07:53;;;;;;;3.55;2.05;;;;;;;17.7;83.16992;94841.86;;;;
2022/06/24 04:08:55;;;;;;;3.55;2.05;;;;;;;17.7;83.16992;94841.86;;;;
2022/06/24 04:09:55;;;;;;;3.55;2.05;;;;;;;17.7;83.16992;94841.86;;;;
2022/06/24 04:10:56;;;;;;;3.55;2.05;;;;;;;17.7;83.16992;94841.86;;;;
2022/06/24 04:11:56;;;;;;;3.55;2.05;;;;;;;17.7;83.16992;94841.86;;;;
2022/06/24 04:12:57;;;;;;;3.55;2.05;;;;;;;17.7;83.16992;94841.86;;;;
2022/06/24 04:13:57;;;;;;;3.55;2.05;;;;;;;17.7;83.16992;94841.86;;;;
2022/06/24 04:15:17;;;;;;;3.55;2.05;;;;;;;17.7;83.16992;94841.86;;;;
2022/06/24 04:16:18;;;;;;;3.55;2.05;;;;;;;17.7;83.16992;94841.86;;;;
2022/06/24 04:17:18;;;;;;;3.55;2.05;;;;;;;17.7;83.16992;94841.86;;;;
2022/06/24 04:18:19;;;;;;;3.55;2.05;;;;;;;17.7;83.16992;94841.86;;;;
2022/06/24 04:19:19;;;;;;;3.55;2.05;;;;;;;17.7;83.16992;94841.86;;;;
2022/06/24 04:20:20;;;;;;;3.55;2.05;;;;;;;17.7;83.16992;94841.86;;;;
2022/06/24 04:21:20;;;;;;;3.55;2.05;;;;;;;17.7;83.16992;94841.86;;;;
2022/06/24 04:22:21;;;;;;;3.55;2.05;;;;;;;17.7;83.16992;94841.86;;;;
2022/06/24 04:23:22;;;;;;;3.35;2;;;;;;;17.98;83.33105;94854.69;;;;
2022/06/24 04:24:23;;;;;;;3.35;2;;;;;;;17.98;83.33105;94854.69;;;;
2022/06/24 04:25:23;;;;;;;3.35;2;;;;;;;17.98;83.33105;94854.69;;;;
2022/06/24 04:26:24;;;;;;;3.35;2;;;;;;;17.98;83.33105;94854.69;;;;
2022/06/24 04:27:25;;;;;;;3.35;2;;;;;;;17.98;83.33105;94854.69;;;;
2022/06/24 04:28:26;;;;;;;3.35;2;;;;;;;17.98;83.33105;94854.69;;;;
2022/06/24 04:29:26;;;;;;;3.35;2;;;;;;;17.98;83.33105;94854.69;;;;
2022/06/24 04:30:27;;;;;;;3.35;2;;;;;;;17.98;83.33105;94854.69;;;;
2022/06/24 04:31:27;;;;;;;3.35;2;;;;;;;17.98;83.33105;94854.69;;;;
2022/06/24 04:32:28;;;;;;;3.35;2;;;;;;;17.98;83.33105;94854.69;;;;
2022/06/24 04:33:28;;;;;;;3.35;2;;;;;;;17.98;83.33105;94854.69;;;;
2022/06/24 04:34:29;;;;;;;4.85;2.25;;;;;;;18.31;83.52441;94876.48;;;;
2022/06/24 04:35:29;;;;;;;4.85;2.25;;;;;;;18.31;83.52441;94876.48;;;;
2022/06/24 04:36:30;;;;;;;4.85;2.25;;;;;;;18.31;83.52441;94876.48;;;;
2022/06/24 04:37:30;;;;;;;4.85;2.25;;;;;;;18.31;83.52441;94876.48;;;;
2022/06/24 04:38:31;;;;;;;4.85;2.25;;;;;;;18.31;83.52441;94876.48;;;;
2022/06/24 04:39:31;;;;;;;4.85;2.25;;;;;;;18.31;83.52441;94876.48;;;;
2022/06/24 04:40:32;;;;;;;4.85;2.25;;;;;;;18.31;83.52441;94876.48;;;;
2022/06/24 04:41:32;;;;;;;4.85;2.25;;;;;;;18.31;83.52441;94876.48;;;;
2022/06/24 04:42:33;;;;;;;4.85;2.25;;;;;;;18.31;83.52441;94876.48;;;;
2022/06/24 04:43:33;;;;;;;4.85;2.25;;;;;;;18.31;83.52441;94876.48;;;;
2022/06/24 04:44:34;;;;;;;3.3;1.9;;;;;;;18.56;83.44141;94877.26;;;;
2022/06/24 04:45:34;;;;;;;3.3;1.9;;;;;;;18.56;83.44141;94877.26;;;;
2022/06/24 04:46:35;;;;;;;3.3;1.9;;;;;;;18.56;83.44141;94877.26;;;;
2022/06/24 04:47:35;;;;;;;3.3;1.9;;;;;;;18.56;83.44141;94877.26;;;;
2022/06/24 04:48:36;;;;;;;3.3;1.9;;;;;;;18.56;83.44141;94877.26;;;;
2022/06/24 04:49:37;;;;;;;3.3;1.9;;;;;;;18.56;83.44141;94877.26;;;;
2022/06/24 04:50:38;;;;;;;3.3;1.9;;;;;;;18.56;83.44141;94877.26;;;;
2022/06/24 04:51:38;;;;;;;3.3;1.9;;;;;;;18.56;83.44141;94877.26;;;;
2022/06/24 04:52:39;;;;;;;3.3;1.9;;;;;;;18.56;83.44141;94877.26;;;;
2022/06/24 04:53:40;;;;;;;3.3;1.9;;;;;;;18.56;83.44141;94877.26;;;;
2022/06/24 04:54:40;;;;;;;3.3;1.9;;;;;;;18.56;83.44141;94877.26;;;;
2022/06/24 04:55:41;;;;;;;3.75;1.85;;;;;;;18.66;83.08789;94882.61;;;;
2022/06/24 04:56:41;;;;;;;3.75;1.85;;;;;;;18.66;83.08789;94882.61;;;;
2022/06/24 04:57:42;;;;;;;3.75;1.85;;;;;;;18.66;83.08789;94882.61;;;;
2022/06/24 04:58:42;;;;;;;3.75;1.85;;;;;;;18.66;83.08789;94882.61;;;;
2022/06/24 04:59:43;;;;;;;3.75;1.85;;;;;;;18.66;83.08789;94882.61;;;;
2022/06/24 05:00:43;;;;;;;3.75;1.85;;;;;;;18.66;83.08789;94882.61;;;;
2022/06/24 05:01:44;;;;;;;3.75;1.85;;;;;;;18.66;83.08789;94882.61;;;;
2022/06/24 05:02:44;;;;;;;3.75;1.85;;;;;;;18.66;83.08789;94882.61;;;;
2022/06/24 05:03:45;;;;;;;3.75;1.85;;;;;;;18.66;83.08789;94882.61;;;;
2022/06/24 05:04:46;;;;;;;3.75;1.85;;;;;;;18.66;83.08789;94882.61;;;;
2022/06/24 05:05:47;;;;;;;4.050001;2;;;;;;;18.67;82.69434;94874.98;;;;
2022/06/24 05:06:49;;;;;;;4.050001;2;;;;;;;18.67;82.69434;94874.98;;;;
2022/06/24 05:07:50;;;;;;;4.050001;2;;;;;;;18.67;82.69434;94874.98;;;;
2022/06/24 05:08:50;;;;;;;4.050001;2;;;;;;;18.67;82.69434;94874.98;;;;
2022/06/24 05:09:51;;;;;;;4.050001;2;;;;;;;18.67;82.69434;94874.98;;;;
2022/06/24 05:10:51;;;;;;;4.050001;2;;;;;;;18.67;82.69434;94874.98;;;;
2022/06/24 05:11:51;;;;;;;4.050001;2;;;;;;;18.67;82.69434;94874.98;;;;
2022/06/24 05:12:52;;;;;;;4.050001;2;;;;;;;18.67;82.69434;94874.98;;;;
2022/06/24 05:13:52;;;;;;;4.050001;2;;;;;;;18.67;82.69434;94874.98;;;;
2022/06/24 05:14:53;;;;;;;4.050001;2;;;;;;;18.67;82.69434;94874.98;;;;
2022/06/24 05:15:54;;;;;;;4.050001;2;;;;;;;18.67;82.69434;94874.98;;;;
2022/06/24 05:16:54;;;;;;;2.900001;2;;;;;;;18.74;82.45703;94883.95;;;;
2022/06/24 05:17:55;;;;;;;2.900001;2;;;;;;;18.74;82.45703;94883.95;;;;
2022/06/24 05:18:56;;;;;;;2.900001;2;;;;;;;18.74;82.45703;94883.95;;;;
2022/06/24 05:19:56;;;;;;;2.900001;2;;;;;;;18.74;82.45703;94883.95;;;;
2022/06/24 05:20:57;;;;;;;2.900001;2;;;;;;;18.74;82.45703;94883.95;;;;
2022/06/24 05:21:57;;;;;;;2.900001;2;;;;;;;18.74;82.45703;94883.95;;;;
2022/06/24 05:22:57;;;;;;;2.900001;2;;;;;;;18.74;82.45703;94883.95;;;;
2022/06/24 05:23:58;;;;;;;2.900001;2;;;;;;;18.74;82.45703;94883.95;;;;
2022/06/24 05:24:58;;;;;;;2.900001;2;;;;;;;18.74;82.45703;94883.95;;;;
2022/06/24 05:25:59;;;;;;;2.900001;2;;;;;;;18.74;82.45703;94883.95;;;;
2022/06/24 05:26:59;;;;;;;4.05;1.85;;;;;;;18.87;82.18555;94878.02;;;;
2022/06/24 05:28:00;;;;;;;4.05;1.85;;;;;;;18.87;82.18555;94878.02;;;;
2022/06/24 05:29:00;;;;;;;4.05;1.85;;;;;;;18.87;82.18555;94878.02;;;;
2022/06/24 05:30:01;;;;;;;4.05;1.85;;;;;;;18.87;82.18555;94878.02;;;;
2022/06/24 05:31:02;;;;;;;4.05;1.85;;;;;;;18.87;82.18555;94878.02;;;;
2022/06/24 05:32:02;;;;;;;4.05;1.85;;;;;;;18.87;82.18555;94878.02;;;;
2022/06/24 05:33:04;;;;;;;4.05;1.85;;;;;;;18.87;82.18555;94878.02;;;;
2022/06/24 05:34:06;;;;;;;4.05;1.85;;;;;;;18.87;82.18555;94878.02;;;;
2022/06/24 05:35:07;;;;;;;4.05;1.85;;;;;;;18.87;82.18555;94878.02;;;;
2022/06/24 05:36:08;;;;;;;4.05;1.85;;;;;;;18.87;82.18555;94878.02;;;;
2022/06/24 05:37:09;;;;;;;4.05;1.85;;;;;;;18.87;82.18555;94878.02;;;;
2022/06/24 05:38:09;;;;;;;2.900001;1.9;;;;;;;19.16;81.86719;94874.95;;;;
2022/06/24 05:39:10;;;;;;;2.900001;1.9;;;;;;;19.16;81.86719;94874.95;;;;
2022/06/24 05:40:11;;;;;;;2.900001;1.9;;;;;;;19.16;81.86719;94874.95;;;;
2022/06/24 05:41:12;;;;;;;2.900001;1.9;;;;;;;19.16;81.86719;94874.95;;;;
2022/06/24 05:42:12;;;;;;;2.900001;1.9;;;;;;;19.16;81.86719;94874.95;;;;
2022/06/24 05:43:13;;;;;;;2.900001;1.9;;;;;;;19.16;81.86719;94874.95;;;;
2022/06/24 05:44:14;;;;;;;2.900001;1.9;;;;;;;19.16;81.86719;94874.95;;;;
2022/06/24 05:45:15;;;;;;;2.900001;1.9;;;;;;;19.16;81.86719;94874.95;;;;
2022/06/24 05:46:16;;;;;;;2.900001;1.9;;;;;;;19.16;81.86719;94874.95;;;;
2022/06/24 05:47:16;;;;;;;2.900001;1.9;;;;;;;19.16;81.86719;94874.95;;;;
2022/06/24 05:48:17;;;;;;;3.95;1.9;;;;;;;19.5;81.45801;94863.01;;;;
2022/06/24 05:49:17;;;;;;;3.95;1.9;;;;;;;19.5;81.45801;94863.01;;;;
2022/06/24 05:50:18;;;;;;;3.95;1.9;;;;;;;19.5;81.45801;94863.01;;;;
2022/06/24 05:51:18;;;;;;;3.95;1.9;;;;;;;19.5;81.45801;94863.01;;;;
2022/06/24 05:55:02;;;;;;;3.95;1.9;;;;;;;19.5;81.45801;94863.01;;;;
2022/06/24 05:56:03;;;;;;;3.95;1.9;;;;;;;19.5;81.45801;94863.01;;;;
2022/06/24 05:57:04;;;;;;;3.95;1.9;;;;;;;19.5;81.45801;94863.01;;;;
2022/06/24 05:58:04;;;;;;;3.95;1.9;;;;;;;19.5;81.45801;94863.01;;;;